KORF/ORF METAR and TAF weather

Enter ICAO airport designator
Station Type Date Time Source
KORF METAR 2021/07/24 18:51 UTC NOAA

KORF 241851Z 11013KT 10SM CLR 31/14 A3010 RMK AO2 SLP193 T03110139


Station Type Date Time Source
KORF Decoded METAR 2021/07/24 18:51 UTC NOAA

NORFOLK INTERNATIONAL AIRPORT , VA, United States (KORF) 36-54N 076-12W 14M
Jul 24, 2021 - 02:51 PM EDT / 2021.07.24 1851 UTC
Wind: from the ESE (110 degrees) at 15 MPH (13 KT):0
Visibility: 10 mile(s):0
Sky conditions: clear
Temperature: 88.0 F (31.1 C)
Dew Point: 57.0 F (13.9 C)
Relative Humidity: 35%
Pressure (altimeter): 30.1 in. Hg (1019 hPa)
ob: KORF 241851Z 11013KT 10SM CLR 31/14 A3010 RMK AO2 SLP193 T03110139
cycle: 19

Station Type Date Time Source
KORF TAF 2021/07/24 18:22 UTC NOAA

TAF KORF 241720Z 2418/2518 05007KT P6SM FEW050 BKN150
FM242000 12008KT P6SM SCT060
FM242300 17006KT P6SM SCT060
FM250500 20007KT P6SM SCT070 BKN120
FM251400 21012KT P6SM SCT200

Example: see airport list